Arcola, Texas
Current Conditions -  °F | °C
As of 1:55 AM on Friday 19 Dec 2014 (Local Time) from KAXH Reporting Station
Thunderstorm Thunderstorm  
Wind Chill: 51°   Ceiling: 400
Heat Index: 51°   Visibility: 7mi
Dew Point: 51°   Wind: 9mph
Humidity: 100%   Direction: 350°N
Pressure: 30.04"   Gusts: NA
Location:  29.4042°N, 95.4477°W
Report Text: KAXH 190755Z AUTO 35008KT 7SM VCTSDZ BKN004 BKN011 OVC015 11/11 A3004 RMK AO2 LTG DSNT NW THRU E P0005 T01050105
Loading
Personal Weather Stations






























Interactive Weather Map New forecast layout! Learn more

10-Day Weather Forecast

Advertisements
Track Severe Weather on mobile